Time;durP1;ratioP1;P1;durP2;ratioP2;P2;SDS_P1;SDS_P2;PMS_P1;PMS_P2;Temp;Humidity;BMP_temperature;BMP_pressure;BME280_temperature;BME280_humidity;BME280_pressure;Samples;Min_cycle;Max_cycle;Signal;HPM_P1;HPM_P2
2022/07/26 00:00:57;;;;;;;8.20;4.40;;;;;;;22.70;41.05;98077.69;109479;1276;22475;-89
2022/07/26 00:03:35;;;;;;;11.20;5.00;;;;;;;22.87;41.23;98087.09;109114;1279;22483;-89
2022/07/26 00:06:17;;;;;;;11.10;4.70;;;;;;;23.08;40.95;98085.66;109280;1276;22230;-88
2022/07/26 00:08:50;;;;;;;9.40;5.20;;;;;;;23.23;41.18;98082.83;109332;1278;22468;-88
2022/07/26 00:11:28;;;;;;;7.20;3.90;;;;;;;23.49;41.09;98081.38;109174;1279;22271;-89
2022/07/26 00:14:13;;;;;;;9.70;4.70;;;;;;;23.90;41.06;98070.87;109494;1276;22324;-90
2022/07/26 00:16:48;;;;;;;9.20;4.40;;;;;;;24.27;40.77;98066.02;109520;1276;22629;-91
2022/07/26 00:19:15;;;;;;;9.30;4.50;;;;;;;24.43;40.53;98062.48;109452;1276;22190;-86
2022/07/26 00:22:32;;;;;;;9.20;4.70;;;;;;;24.67;40.65;98056.30;109463;1276;22523;-90
2022/07/26 00:24:46;;;;;;;9.30;4.80;;;;;;;25.02;40.56;98047.06;109480;1277;22345;-90
2022/07/26 00:27:27;;;;;;;8.70;4.40;;;;;;;25.31;40.26;98045.44;109498;1279;22155;-89
2022/07/26 00:30:07;;;;;;;10.30;4.40;;;;;;;25.50;40.04;98043.67;109600;1278;22368;-89
2022/07/26 00:32:51;;;;;;;10.00;4.90;;;;;;;25.69;40.01;98049.09;109545;1277;22346;-92
2022/07/26 00:35:50;;;;;;;8.50;4.30;;;;;;;25.82;39.80;98057.16;109781;1277;22351;-93
2022/07/26 00:38:32;;;;;;;8.50;4.80;;;;;;;25.89;39.78;98057.02;109516;1277;22924;-90
2022/07/26 00:41:08;;;;;;;8.70;4.60;;;;;;;25.99;39.60;98062.80;109345;1277;22365;-89
2022/07/26 00:44:10;;;;;;;10.30;4.30;;;;;;;26.00;39.61;98056.29;109574;1277;22178;-90
2022/07/26 00:46:54;;;;;;;10.10;4.50;;;;;;;26.08;39.57;98059.49;109540;1277;23497;-90
2022/07/26 00:49:39;;;;;;;8.20;4.20;;;;;;;26.17;39.55;98061.30;109571;1277;23018;-89
2022/07/26 00:52:25;;;;;;;6.90;3.90;;;;;;;26.22;39.51;98062.02;109711;1277;23167;-91
2022/07/26 00:55:15;;;;;;;10.00;4.40;;;;;;;26.17;39.37;98055.77;109338;1277;22444;-93
2022/07/26 00:57:51;;;;;;;9.30;4.30;;;;;;;26.11;39.37;98056.80;109432;1277;22225;-90
2022/07/26 01:00:32;;;;;;;10.00;4.40;;;;;;;26.08;39.44;98057.46;109506;1277;23100;-89
2022/07/26 01:03:14;;;;;;;10.90;4.70;;;;;;;26.12;39.40;98065.13;109539;1277;22260;-90
2022/07/26 01:06:08;;;;;;;10.60;4.30;;;;;;;26.16;39.44;98062.85;109511;1278;22513;-91
2022/07/26 01:08:50;;;;;;;8.00;4.80;;;;;;;26.12;39.48;98058.77;109415;1279;22632;-89
2022/07/26 01:11:27;;;;;;;8.60;4.60;;;;;;;26.08;39.66;98057.05;109598;1277;22519;-92
2022/07/26 01:14:17;;;;;;;10.90;4.80;;;;;;;26.04;39.53;98053.02;109582;1278;23104;-90
2022/07/26 01:16:55;;;;;;;8.80;4.50;;;;;;;26.00;39.68;98050.91;109396;1278;22358;-90
2022/07/26 01:19:32;;;;;;;11.30;5.20;;;;;;;25.90;39.97;98048.20;109545;1277;22491;-90
2022/07/26 01:22:47;;;;;;;;;;;;;;;;;;;;;
2022/07/26 01:25:37;;;;;;;8.10;4.40;;;;;;;25.60;40.32;98069.61;109576;1278;22364;-90
2022/07/26 01:28:45;;;;;;;8.50;4.70;;;;;;;25.52;40.46;98093.27;109523;1276;22430;-89
2022/07/26 01:32:02;;;;;;;;;;;;;;;;;;;;;
2022/07/26 01:34:41;;;;;;;9.20;4.60;;;;;;;25.58;40.09;98127.77;109584;1277;22364;-87
2022/07/26 01:37:48;;;;;;;9.40;3.70;;;;;;;25.59;39.79;98130.15;109383;1278;22324;-90
2022/07/26 01:40:30;;;;;;;10.30;4.00;;;;;;;25.52;39.36;98137.23;109325;1278;22435;-84
2022/07/26 01:43:34;;;;;;;;;;;;;;;;;;;;;
2022/07/26 01:46:31;;;;;;;12.30;5.60;;;;;;;25.22;39.70;98164.30;109613;1276;22232;-86
2022/07/26 01:49:12;;;;;;;11.80;5.50;;;;;;;25.03;39.86;98166.15;109628;1276;22409;-85
2022/07/26 01:52:39;;;;;;;;;;;;;;;;;;;;;
2022/07/26 01:55:59;;;;;;;11.40;6.10;;;;;;;24.72;40.40;98184.48;108220;1289;22460;-88
2022/07/26 01:58:44;;;;;;;14.10;6.50;;;;;;;24.62;40.38;98187.66;107976;1290;22716;-85
2022/07/26 02:02:06;;;;;;;11.90;6.60;;;;;;;24.51;40.77;98193.90;108130;1289;23290;-85
2022/07/26 02:05:11;;;;;;;;;;;;;;;;;;;;;
2022/07/26 02:08:03;;;;;;;;;;;;;;;;;;;;;
2022/07/26 02:11:52;;;;;;;;;;;;;;;;;;;;;
2022/07/26 02:15:36;;;;;;;15.60;7.70;;;;;;;23.96;42.15;98209.61;107560;1294;22635;-86
2022/07/26 02:18:56;;;;;;;;;;;;;;;;;;;;;
2022/07/26 02:21:48;;;;;;;13.50;8.20;;;;;;;23.58;42.96;98220.55;107418;1295;22636;-85
2022/07/26 02:24:29;;;;;;;13.10;7.10;;;;;;;23.45;43.42;98224.42;107485;1294;22481;-85
2022/07/26 02:27:04;;;;;;;15.80;7.40;;;;;;;23.33;43.59;98225.66;107540;1293;22538;-85
2022/07/26 02:30:12;;;;;;;13.40;7.70;;;;;;;23.23;43.76;98229.54;107423;1294;22399;-85
2022/07/26 02:33:20;;;;;;;13.10;7.10;;;;;;;23.13;43.62;98246.94;108310;1285;22616;-85
2022/07/26 02:36:21;;;;;;;11.00;8.00;;;;;;;23.02;44.00;98247.77;108587;1284;22464;-86
2022/07/26 02:39:33;;;;;;;12.60;7.70;;;;;;;22.91;44.28;98247.93;108669;1284;23186;-86
2022/07/26 02:42:06;;;;;;;12.80;8.50;;;;;;;22.80;44.62;98257.20;108652;1284;22539;-82
2022/07/26 02:44:35;;;;;;;13.20;7.90;;;;;;;22.73;45.28;98269.79;108685;1284;22564;-87
2022/07/26 02:47:19;;;;;;;14.20;8.00;;;;;;;22.63;45.39;98270.20;108449;1285;22853;-86
2022/07/26 02:49:57;;;;;;;13.70;6.70;;;;;;;22.56;45.39;98276.30;108451;1279;22522;-87
2022/07/26 02:52:39;;;;;;;;;;;;;;;;;;;;;
2022/07/26 02:55:16;;;;;;;15.00;7.60;;;;;;;22.42;45.92;98293.41;109534;1277;22344;-86
2022/07/26 02:57:52;;;;;;;13.50;6.80;;;;;;;22.35;46.36;98297.54;109384;1277;22168;-85
2022/07/26 03:00:25;;;;;;;11.80;7.20;;;;;;;22.30;46.68;98300.83;109478;1278;22467;-86
2022/07/26 03:03:03;;;;;;;13.40;7.00;;;;;;;22.20;47.01;98301.16;109500;1278;22564;-84
2022/07/26 03:05:35;;;;;;;13.00;7.70;;;;;;;22.12;47.35;98310.29;109471;1278;22252;-85
2022/07/26 03:08:02;;;;;;;14.60;7.50;;;;;;;22.02;47.38;98299.34;109455;1278;22501;-85
2022/07/26 03:10:35;;;;;;;14.60;7.70;;;;;;;21.95;47.92;98300.60;109395;1276;22403;-87
2022/07/26 03:13:02;;;;;;;12.70;7.40;;;;;;;21.86;49.31;98315.28;109612;1276;23109;-84
2022/07/26 03:15:31;;;;;;;12.10;6.90;;;;;;;21.75;48.19;98319.73;109439;1276;22381;-87
2022/07/26 03:18:06;;;;;;;12.70;6.80;;;;;;;21.69;48.40;98318.64;109439;1276;22431;-84
2022/07/26 03:20:37;;;;;;;15.80;7.10;;;;;;;21.61;50.58;98331.19;109451;1276;22861;-86
2022/07/26 03:23:10;;;;;;;10.90;5.70;;;;;;;21.57;48.72;98332.45;109469;1276;22463;-88
2022/07/26 03:25:44;;;;;;;14.40;6.60;;;;;;;21.51;48.86;98338.16;109433;1276;22337;-84
2022/07/26 03:28:13;;;;;;;15.20;6.40;;;;;;;21.46;50.20;98337.54;109373;1278;22509;-84
2022/07/26 03:30:40;;;;;;;11.50;6.70;;;;;;;21.37;49.97;98344.54;109497;1276;22536;-84
2022/07/26 03:33:09;;;;;;;10.20;5.90;;;;;;;21.30;49.62;98358.72;109599;1276;23058;-84
2022/07/26 03:35:36;;;;;;;13.50;5.30;;;;;;;21.23;50.00;98363.41;109483;1276;23449;-84
2022/07/26 03:38:03;;;;;;;9.30;5.30;;;;;;;21.17;49.72;98367.98;109445;1278;22391;-84
2022/07/26 03:40:35;;;;;;;14.50;5.10;;;;;;;21.17;50.22;98372.95;109582;1276;22442;-84
2022/07/26 03:43:05;;;;;;;9.60;4.80;;;;;;;21.12;50.52;98379.46;109605;1275;22992;-85
2022/07/26 03:45:35;;;;;;;11.70;5.30;;;;;;;21.06;50.05;98378.27;109508;1276;22435;-83
2022/07/26 03:48:02;;;;;;;10.70;5.00;;;;;;;21.03;49.85;98378.46;109607;1276;22844;-82
2022/07/26 03:50:32;;;;;;;9.90;4.30;;;;;;;21.03;50.39;98384.92;109397;1279;23239;-82
2022/07/26 03:53:01;;;;;;;8.50;4.60;;;;;;;21.01;50.47;98383.52;109587;1276;22398;-83
2022/07/26 03:58:21;;;;;;;9.50;5.10;;;;;;;20.96;50.10;98391.96;109522;1278;22375;-84
2022/07/26 04:00:53;;;;;;;10.30;4.90;;;;;;;20.99;50.55;98410.88;109505;1278;22468;-83
2022/07/26 04:03:22;;;;;;;9.50;4.50;;;;;;;20.99;50.24;98412.08;109265;1278;22315;-83
2022/07/26 04:05:49;;;;;;;9.90;5.10;;;;;;;21.04;51.19;98423.77;109253;1279;22403;-83
2022/07/26 04:08:24;;;;;;;9.00;4.70;;;;;;;21.01;50.40;98414.52;109493;1276;22314;-85
2022/07/26 04:10:53;;;;;;;8.90;4.30;;;;;;;21.03;50.60;98420.72;109585;1276;22309;-85
2022/07/26 04:13:23;;;;;;;10.90;5.20;;;;;;;20.99;51.42;98422.23;109275;1278;22498;-84
2022/07/26 04:15:55;;;;;;;8.20;4.70;;;;;;;20.95;50.85;98418.34;109614;1274;22390;-85
2022/07/26 04:18:22;;;;;;;11.00;4.80;;;;;;;20.98;51.35;98426.48;109486;1276;22406;-84
2022/07/26 04:20:57;;;;;;;10.30;5.50;;;;;;;20.96;50.97;98431.63;109499;1277;22246;-83
2022/07/26 04:23:24;;;;;;;10.50;5.10;;;;;;;20.95;50.99;98431.60;109587;1276;22203;-84
2022/07/26 04:26:07;;;;;;;9.50;5.10;;;;;;;20.96;51.03;98446.08;109592;1276;22467;-84
2022/07/26 04:28:36;;;;;;;9.00;4.50;;;;;;;20.97;50.90;98446.28;109608;1276;22351;-83
2022/07/26 04:31:06;;;;;;;9.20;5.20;;;;;;;20.95;51.14;98451.25;109589;1277;22369;-83
2022/07/26 04:33:33;;;;;;;9.00;5.00;;;;;;;20.97;51.11;98460.27;109378;1278;22386;-85
2022/07/26 04:36:00;;;;;;;8.50;4.30;;;;;;;21.01;51.32;98456.69;109593;1277;22380;-86
2022/07/26 04:38:27;;;;;;;10.80;5.40;;;;;;;21.03;51.41;98454.43;109517;1277;22464;-85
2022/07/26 04:40:55;;;;;;;10.30;5.50;;;;;;;21.04;51.21;98454.55;109402;1278;22189;-84
2022/07/26 04:43:30;;;;;;;11.50;5.30;;;;;;;21.08;51.38;98455.17;109493;1277;22415;-83
2022/07/26 04:46:00;;;;;;;12.60;5.70;;;;;;;21.10;51.42;98458.55;109528;1277;22291;-84
2022/07/26 04:48:40;;;;;;;8.50;4.80;;;;;;;21.11;51.66;98468.38;109497;1277;22767;-85
2022/07/26 04:51:15;;;;;;;8.30;4.60;;;;;;;21.09;52.15;98462.97;109547;1278;22200;-84
2022/07/26 04:53:44;;;;;;;10.50;5.10;;;;;;;21.06;51.90;98458.46;109421;1278;22353;-84
2022/07/26 04:56:17;;;;;;;10.00;4.80;;;;;;;21.06;52.16;98465.14;109381;1277;22562;-83
2022/07/26 04:58:55;;;;;;;10.30;5.00;;;;;;;21.05;51.94;98461.12;109440;1277;22336;-85
2022/07/26 05:01:31;;;;;;;10.30;5.10;;;;;;;21.10;52.14;98465.61;109519;1277;23238;-83
2022/07/26 05:04:14;;;;;;;10.50;4.60;;;;;;;21.11;52.20;98469.09;109403;1277;22497;-83
2022/07/26 05:06:46;;;;;;;9.40;4.50;;;;;;;21.10;52.58;98472.92;109594;1277;23068;-83
2022/07/26 05:09:26;;;;;;;9.60;4.20;;;;;;;21.08;52.27;98473.89;109525;1277;22527;-84
2022/07/26 05:11:57;;;;;;;8.70;4.80;;;;;;;21.10;52.38;98479.14;109414;1277;22406;-84
2022/07/26 05:14:33;;;;;;;10.70;5.00;;;;;;;21.07;52.24;98485.69;109538;1277;22373;-83
2022/07/26 05:17:05;;;;;;;8.40;3.50;;;;;;;21.10;52.41;98482.77;109413;1277;22509;-85
2022/07/26 05:19:43;;;;;;;9.50;4.40;;;;;;;21.05;52.33;98494.95;109418;1278;22249;-83
2022/07/26 05:22:25;;;;;;;8.60;4.30;;;;;;;21.08;52.52;98501.33;109531;1277;23270;-84
2022/07/26 05:25:10;;;;;;;10.20;4.30;;;;;;;21.08;52.35;98499.42;109605;1277;22314;-83
2022/07/26 05:27:47;;;;;;;10.20;4.20;;;;;;;21.10;52.66;98502.79;109530;1277;22327;-83
2022/07/26 05:30:35;;;;;;;9.00;4.50;;;;;;;21.07;52.55;98501.86;109556;1277;22607;-84
2022/07/26 05:33:05;;;;;;;8.30;3.30;;;;;;;21.13;52.23;98505.91;109579;1277;22546;-84
2022/07/26 05:35:35;;;;;;;8.60;3.40;;;;;;;21.16;52.23;98505.27;109386;1278;22384;-84
2022/07/26 05:38:24;;;;;;;7.80;3.70;;;;;;;21.19;52.04;98499.58;109592;1277;23231;-83
2022/07/26 05:41:08;;;;;;;9.00;3.40;;;;;;;21.25;52.30;98515.33;109541;1277;22409;-82
2022/07/26 05:43:49;;;;;;;7.10;3.10;;;;;;;21.20;52.07;98512.77;109550;1277;22512;-82
2022/07/26 05:46:54;;;;;;;10.00;3.30;;;;;;;21.24;52.04;98516.81;109590;1277;22349;-84
2022/07/26 05:49:54;;;;;;;8.20;3.50;;;;;;;21.26;52.13;98516.34;109433;1277;23173;-84
2022/07/26 05:52:38;;;;;;;8.50;3.10;;;;;;;21.25;51.83;98508.72;109570;1277;22374;-83
2022/07/26 05:55:33;;;;;;;;;;;;;;;;;;;;;
2022/07/26 05:59:03;;;;;;;7.10;3.10;;;;;;;21.37;51.80;98517.73;109592;1277;22419;-84
2022/07/26 06:01:56;;;;;;;;;;;;;;;;;;;;;
2022/07/26 06:05:18;;;;;;;;;;;;;;;;;;;;;
2022/07/26 06:08:10;;;;;;;;;;;;;;;;;;;;;
2022/07/26 06:12:09;;;;;;;6.00;2.60;;;;;;;21.40;51.48;98536.41;109616;1277;22314;-84
2022/07/26 06:15:12;;;;;;;;;;;;;;;;;;;;;
2022/07/26 06:18:28;;;;;;;8.80;2.70;;;;;;;21.45;51.51;98546.32;108649;1284;22711;-86
2022/07/26 06:21:11;;;;;;;9.30;3.00;;;;;;;21.48;51.43;98543.80;108646;1284;22430;-84
2022/07/26 06:24:22;;;;;;;;;;;;;;;;;;;;;
2022/07/26 06:27:05;;;;;;;10.00;2.60;;;;;;;21.63;51.55;98545.93;108546;1284;23360;-84
2022/07/26 06:29:54;;;;;;;6.60;2.80;;;;;;;21.67;51.44;98552.52;108589;1284;22392;-84
2022/07/26 06:32:46;;;;;;;;;;;;;;;;;;;;;
2022/07/26 06:35:43;;;;;;;8.90;2.70;;;;;;;21.73;51.23;98567.94;108562;1284;23104;-85
2022/07/26 06:38:42;;;;;;;5.50;2.10;;;;;;;21.74;51.29;98565.39;108654;1284;23263;-85
2022/07/26 06:41:36;;;;;;;7.00;2.90;;;;;;;21.96;51.25;98573.09;108632;1284;22363;-84
2022/07/26 06:44:11;;;;;;;6.20;2.60;;;;;;;22.13;51.35;98572.47;108692;1283;22710;-86
2022/07/26 06:46:43;;;;;;;6.10;2.40;;;;;;;22.23;51.04;98576.24;108678;1284;23226;-87
2022/07/26 06:49:13;;;;;;;9.10;3.00;;;;;;;22.30;50.88;98582.24;108521;1285;22990;-84
2022/07/26 06:51:50;;;;;;;6.70;2.50;;;;;;;22.30;50.86;98581.48;109296;1277;23203;-85
2022/07/26 06:54:22;;;;;;;7.60;2.40;;;;;;;22.35;51.10;98585.52;109387;1277;23126;-85
2022/07/26 06:56:54;;;;;;;9.40;3.00;;;;;;;22.33;50.95;98582.14;109596;1276;22462;-84
2022/07/26 06:59:24;;;;;;;6.60;2.60;;;;;;;22.32;51.00;98590.89;109390;1276;22349;-86
2022/07/26 07:02:08;;;;;;;7.40;2.30;;;;;;;22.30;50.96;98592.41;109577;1276;22371;-85
2022/07/26 07:04:42;;;;;;;8.90;2.60;;;;;;;22.19;50.91;98603.80;109633;1276;22415;-84
2022/07/26 07:07:12;;;;;;;8.70;2.90;;;;;;;22.08;50.92;98603.50;109592;1276;22356;-86
2022/07/26 07:09:42;;;;;;;8.60;2.40;;;;;;;22.03;51.10;98605.44;109358;1277;22442;-86
2022/07/26 07:12:14;;;;;;;9.50;2.50;;;;;;;22.02;51.18;98613.30;109331;1277;22420;-87
2022/07/26 07:14:41;;;;;;;10.50;2.30;;;;;;;22.09;51.22;98616.79;109578;1277;22376;-84
2022/07/26 07:17:10;;;;;;;7.20;2.30;;;;;;;22.09;51.02;98618.73;109403;1277;23156;-85
2022/07/26 07:19:41;;;;;;;8.50;2.30;;;;;;;22.03;50.86;98616.24;109554;1277;22390;-85
2022/07/26 07:22:10;;;;;;;7.60;2.20;;;;;;;21.99;50.97;98619.33;109393;1278;22387;-87
2022/07/26 07:24:43;;;;;;;6.90;2.20;;;;;;;21.97;51.13;98613.84;109588;1277;23106;-84
2022/07/26 07:27:17;;;;;;;7.10;2.30;;;;;;;22.06;51.16;98619.57;109581;1277;22438;-85
2022/07/26 07:29:50;;;;;;;8.20;2.60;;;;;;;22.10;50.83;98614.84;109595;1277;22382;-85
2022/07/26 07:32:22;;;;;;;7.20;2.20;;;;;;;22.16;50.88;98619.78;109385;1278;22718;-84
2022/07/26 07:34:57;;;;;;;8.10;2.20;;;;;;;22.20;50.80;98618.73;109395;1277;22367;-85
2022/07/26 07:37:32;;;;;;;7.80;2.00;;;;;;;22.30;50.66;98617.39;109363;1277;23234;-84
2022/07/26 07:40:08;;;;;;;8.20;2.20;;;;;;;22.41;50.60;98614.61;109572;1277;23061;-85
2022/07/26 07:42:43;;;;;;;8.10;2.00;;;;;;;22.58;50.60;98617.63;109293;1277;22411;-86
2022/07/26 07:45:15;;;;;;;10.20;2.10;;;;;;;22.75;50.50;98619.83;109401;1277;22471;-84
2022/07/26 07:47:54;;;;;;;7.20;1.70;;;;;;;22.87;50.55;98615.26;109604;1277;22464;-85
2022/07/26 07:50:29;;;;;;;7.50;1.70;;;;;;;23.05;50.23;98618.52;109367;1277;22417;-85
2022/07/26 07:53:02;;;;;;;8.20;1.90;;;;;;;23.25;50.24;98629.41;109620;1276;22311;-86
2022/07/26 07:55:34;;;;;;;8.70;2.00;;;;;;;23.25;49.94;98625.44;109415;1277;23021;-85
2022/07/26 07:58:12;;;;;;;6.70;2.10;;;;;;;23.41;50.42;98622.87;109589;1277;22537;-85
2022/07/26 08:00:44;;;;;;;7.30;2.00;;;;;;;23.64;50.19;98624.63;109610;1277;22426;-87
2022/07/26 08:03:20;;;;;;;8.40;1.80;;;;;;;23.69;49.77;98621.16;109616;1277;22143;-88
2022/07/26 08:05:56;;;;;;;7.00;2.00;;;;;;;23.71;49.98;98625.95;109593;1277;22435;-87
2022/07/26 08:08:26;;;;;;;7.00;1.60;;;;;;;23.85;49.87;98626.70;109405;1277;22415;-85
2022/07/26 08:11:09;;;;;;;7.30;2.00;;;;;;;23.91;49.34;98633.35;109632;1277;22201;-88
2022/07/26 08:13:47;;;;;;;5.20;1.50;;;;;;;23.86;49.52;98637.70;109597;1277;23244;-86
2022/07/26 08:16:20;;;;;;;5.30;1.70;;;;;;;23.90;49.70;98632.84;109369;1277;23103;-86
2022/07/26 08:18:56;;;;;;;6.50;1.90;;;;;;;23.98;49.08;98630.01;109618;1277;22559;-86
2022/07/26 08:21:25;;;;;;;7.00;2.00;;;;;;;23.96;49.02;98625.23;109630;1277;22467;-87
2022/07/26 08:24:15;;;;;;;6.90;1.60;;;;;;;23.96;49.08;98625.14;109582;1277;22347;-87
2022/07/26 08:26:49;;;;;;;4.60;1.50;;;;;;;24.03;49.11;98622.88;109593;1277;22346;-87
2022/07/26 08:29:28;;;;;;;7.30;1.70;;;;;;;24.08;48.76;98633.80;109395;1277;22401;-88
2022/07/26 08:32:18;;;;;;;;;;;;;;;;;;;;;
2022/07/26 08:35:10;;;;;;;6.10;1.50;;;;;;;24.24;48.77;98632.61;109337;1277;22409;-88
2022/07/26 08:38:13;;;;;;;4.60;1.40;;;;;;;24.34;49.23;98630.23;109440;1277;22151;-88
2022/07/26 08:40:44;;;;;;;4.90;1.60;;;;;;;24.49;48.32;98634.20;109587;1276;23119;-84
2022/07/26 08:43:43;;;;;;;6.70;1.70;;;;;;;24.39;47.71;98629.48;109416;1277;22419;-86
2022/07/26 08:46:25;;;;;;;8.70;1.80;;;;;;;24.17;48.28;98621.84;109378;1277;22522;-87
2022/07/26 08:49:04;;;;;;;6.70;1.70;;;;;;;24.19;48.36;98620.55;109430;1277;22553;-87
2022/07/26 08:51:41;;;;;;;6.80;1.70;;;;;;;24.21;48.07;98620.02;109594;1277;22468;-86
2022/07/26 08:54:19;;;;;;;5.30;1.60;;;;;;;24.24;48.04;98629.73;109359;1276;22373;-87
2022/07/26 08:56:58;;;;;;;6.50;1.70;;;;;;;24.39;48.62;98627.82;109575;1277;23337;-87
2022/07/26 08:59:43;;;;;;;7.30;1.60;;;;;;;24.52;47.48;98627.95;109436;1277;22359;-89
2022/07/26 09:02:43;;;;;;;6.20;1.60;;;;;;;24.44;48.08;98632.17;109593;1276;22417;-86
2022/07/26 09:05:33;;;;;;;8.70;1.70;;;;;;;24.66;48.21;98632.98;109371;1277;23063;-87
2022/07/26 09:08:27;;;;;;;5.00;1.40;;;;;;;24.83;48.24;98627.48;109567;1277;22157;-89
2022/07/26 09:11:30;;;;;;;6.30;1.60;;;;;;;25.06;47.70;98635.71;109438;1277;22203;-89
2022/07/26 09:14:50;;;;;;;6.00;1.60;;;;;;;25.14;47.64;98645.20;109336;1277;22508;-87
2022/07/26 09:18:05;;;;;;;7.80;1.70;;;;;;;25.10;47.67;98643.15;109581;1277;22498;-89
2022/07/26 09:21:10;;;;;;;;;;;;;;;;;;;;;
2022/07/26 09:24:15;;;;;;;8.60;2.00;;;;;;;24.89;47.42;98652.33;109572;1277;23307;-89
2022/07/26 09:27:18;;;;;;;6.70;1.60;;;;;;;24.58;46.87;98654.66;109607;1277;22392;-83
2022/07/26 09:30:26;;;;;;;6.00;1.40;;;;;;;24.32;47.09;98649.04;109560;1277;23244;-87
2022/07/26 09:33:29;;;;;;;;;;;;;;;;;;;;;
2022/07/26 09:36:40;;;;;;;;;;;;;;;;;;;;;
2022/07/26 09:40:04;;;;;;;;;;;;;;;;;;;;;
2022/07/26 09:44:20;;;;;;;6.10;1.60;;;;;;;24.51;47.06;98643.95;109612;1276;22444;-88
2022/07/26 09:47:32;;;;;;;;;;;;;;;;;;;;;
2022/07/26 09:51:45;;;;;;;7.10;1.90;;;;;;;24.63;47.09;98645.20;109619;1276;22288;-88
2022/07/26 09:55:23;;;;;;;6.30;1.80;;;;;;;24.68;46.92;98649.23;109577;1276;22390;-88
2022/07/26 09:58:05;;;;;;;;;;;;;;;;;;;;;
2022/07/26 10:02:04;;;;;;;11.00;1.90;;;;;;;24.75;47.52;98643.64;109470;1276;22208;-89
2022/07/26 10:05:36;;;;;;;;;;;;;;;;;;;;;
2022/07/26 10:09:25;;;;;;;;;;;;;;;;;;;;;
2022/07/26 10:12:30;;;;;;;;;;;;;;;;;;;;;
2022/07/26 10:16:31;;;;;;;8.60;1.90;;;;;;;25.53;47.11;98640.86;107413;1295;22360;-89
2022/07/26 10:19:42;;;;;;;6.70;1.70;;;;;;;25.62;47.16;98631.87;107070;1302;22425;-89
2022/07/26 10:22:51;;;;;;;7.40;2.10;;;;;;;25.66;46.69;98631.81;107000;1303;22340;-87
2022/07/26 10:25:38;;;;;;;8.50;2.20;;;;;;;25.71;46.72;98640.89;106981;1303;22777;-89
2022/07/26 10:28:25;;;;;;;7.20;2.20;;;;;;;25.59;46.44;98624.81;107017;1302;22307;-91
2022/07/26 10:31:29;;;;;;;9.50;2.30;;;;;;;25.59;46.77;98629.52;106970;1302;22435;-88
2022/07/26 10:34:00;;;;;;;7.70;2.40;;;;;;;25.54;46.32;98637.04;107063;1302;22204;-88
2022/07/26 10:36:39;;;;;;;10.20;2.20;;;;;;;25.38;46.29;98635.46;106945;1301;22236;-90
2022/07/26 10:39:17;;;;;;;9.70;2.60;;;;;;;25.28;46.77;98634.86;107028;1302;22462;-87
2022/07/26 10:41:49;;;;;;;6.20;2.20;;;;;;;25.38;46.48;98640.25;107000;1302;22291;-87
2022/07/26 10:44:27;;;;;;;8.30;1.90;;;;;;;25.33;45.87;98642.43;107172;1291;22253;-86
2022/07/26 10:47:13;;;;;;;8.80;2.60;;;;;;;25.19;46.01;98638.71;107904;1291;22323;-88
2022/07/26 10:50:08;;;;;;;7.30;2.40;;;;;;;25.32;46.17;98645.73;108607;1284;22440;-86
2022/07/26 10:52:58;;;;;;;7.00;2.00;;;;;;;25.34;46.07;98643.71;108632;1284;22404;-87
2022/07/26 10:55:30;;;;;;;8.00;2.10;;;;;;;25.49;46.08;98648.41;108810;1278;22937;-88
2022/07/26 10:58:19;;;;;;;7.30;2.10;;;;;;;25.53;45.93;98647.72;109573;1277;23034;-88
2022/07/26 11:01:23;;;;;;;9.50;3.50;;;;;;;25.59;46.18;98643.20;109600;1276;23265;-89
2022/07/26 11:04:05;;;;;;;7.50;2.50;;;;;;;25.53;45.81;98644.64;109550;1277;23415;-88
2022/07/26 11:06:44;;;;;;;6.80;2.20;;;;;;;25.35;45.57;98643.75;109398;1276;22336;-89
2022/07/26 11:09:42;;;;;;;9.10;2.20;;;;;;;25.27;45.95;98649.79;109508;1276;22667;-90
2022/07/26 11:12:22;;;;;;;8.10;2.30;;;;;;;25.15;45.79;98646.80;109497;1276;22399;-88
2022/07/26 11:15:14;;;;;;;8.70;2.20;;;;;;;25.17;45.91;98651.42;109379;1276;22419;-86
2022/07/26 11:18:26;;;;;;;7.80;2.20;;;;;;;25.29;45.78;98639.36;109618;1276;22340;-87
2022/07/26 11:21:10;;;;;;;6.30;2.00;;;;;;;25.49;45.86;98643.06;109569;1277;22453;-87
2022/07/26 11:23:49;;;;;;;7.50;2.10;;;;;;;25.66;45.96;98636.10;109446;1274;22033;-88
2022/07/26 11:26:30;;;;;;;6.20;1.80;;;;;;;25.90;45.97;98634.52;109411;1277;22284;-89
2022/07/26 11:29:10;;;;;;;6.80;1.90;;;;;;;26.02;45.66;98635.30;109603;1276;22374;-90
2022/07/26 11:31:47;;;;;;;9.80;2.20;;;;;;;25.96;45.35;98635.67;109449;1277;22387;-90
2022/07/26 11:34:21;;;;;;;10.50;2.90;;;;;;;25.83;45.51;98641.08;109413;1277;22903;-88
2022/07/26 11:36:56;;;;;;;11.10;2.10;;;;;;;25.74;45.72;98636.67;109367;1278;22486;-87
2022/07/26 11:39:33;;;;;;;7.60;2.20;;;;;;;25.74;45.45;98635.11;109216;1279;23001;-89
2022/07/26 11:42:20;;;;;;;6.20;2.40;;;;;;;25.64;45.47;98636.41;109370;1279;22434;-89
2022/07/26 11:44:53;;;;;;;7.70;2.30;;;;;;;25.65;45.30;98636.77;109462;1278;22426;-90
2022/07/26 11:47:28;;;;;;;6.90;2.00;;;;;;;25.53;45.21;98629.42;109420;1279;22537;-89
2022/07/26 11:50:09;;;;;;;6.30;1.80;;;;;;;25.49;45.10;98637.36;109385;1279;22349;-88
2022/07/26 11:52:52;;;;;;;6.80;2.30;;;;;;;25.52;45.28;98630.44;109263;1279;22554;-91
2022/07/26 11:55:33;;;;;;;9.20;2.40;;;;;;;25.63;45.16;98632.16;109398;1279;23048;-89
2022/07/26 11:58:04;;;;;;;9.20;2.20;;;;;;;25.62;44.93;98630.39;109311;1279;22352;-88
2022/07/26 12:00:45;;;;;;;8.00;2.40;;;;;;;25.67;45.20;98637.27;109264;1279;22490;-89
2022/07/26 12:03:27;;;;;;;10.60;2.40;;;;;;;25.87;45.44;98632.32;109509;1277;22101;-89
2022/07/26 12:06:15;;;;;;;7.90;2.40;;;;;;;26.16;45.10;98635.01;109443;1279;22498;-90
2022/07/26 12:08:56;;;;;;;6.90;2.40;;;;;;;26.02;44.75;98625.83;109370;1279;22206;-89
2022/07/26 12:11:43;;;;;;;8.00;2.50;;;;;;;25.96;44.91;98631.13;109404;1277;22429;-89
2022/07/26 12:14:34;;;;;;;11.60;2.20;;;;;;;25.83;44.82;98628.01;109312;1279;22436;-91
2022/07/26 12:17:25;;;;;;;8.30;2.30;;;;;;;25.74;44.71;98628.33;109416;1279;22409;-89
2022/07/26 12:20:17;;;;;;;6.90;2.20;;;;;;;25.88;45.11;98626.88;109303;1279;22456;-89
2022/07/26 12:23:05;;;;;;;8.70;2.30;;;;;;;26.21;44.54;98623.64;109292;1279;22575;-90
2022/07/26 12:26:01;;;;;;;6.30;2.20;;;;;;;26.42;44.46;98615.50;109473;1278;23061;-91
2022/07/26 12:32:20;;;;;;;6.10;2.00;;;;;;;26.44;43.66;98612.73;109448;1279;22372;-89
2022/07/26 12:35:32;;;;;;;6.10;1.90;;;;;;;26.33;43.66;98615.17;109523;1278;22368;-90
2022/07/26 12:41:04;;;;;;;7.00;2.40;;;;;;;26.33;43.81;98613.82;109599;1266;22403;-90
2022/07/26 12:44:36;;;;;;;;;;;;;;;;;;;;;
2022/07/26 12:47:03;;;;;;;8.10;2.10;;;;;;;26.36;43.55;98603.73;109299;1279;22396;-90
2022/07/26 12:49:57;;;;;;;7.40;2.00;;;;;;;26.39;43.47;98601.89;109226;1279;22530;-90
2022/07/26 12:54:09;;;;;;;6.70;2.30;;;;;;;26.48;43.55;98600.21;109533;1279;22378;-91
2022/07/26 12:57:13;;;;;;;6.80;2.00;;;;;;;26.56;43.25;98596.85;108377;1287;22478;-89
2022/07/26 13:00:19;;;;;;;10.40;2.20;;;;;;;26.47;43.03;98601.95;108437;1287;23279;-91
2022/07/26 13:03:19;;;;;;;6.90;2.20;;;;;;;26.39;42.97;98601.83;108232;1287;22586;-89
2022/07/26 13:06:14;;;;;;;8.50;2.10;;;;;;;26.22;42.62;98610.70;108436;1286;22380;-89
2022/07/26 13:09:31;;;;;;;9.20;2.20;;;;;;;25.95;43.27;98626.71;109601;1268;22485;-90
2022/07/26 13:12:16;;;;;;;16.20;3.10;;;;;;;25.72;43.39;98613.02;109745;1267;22500;-90
2022/07/26 13:15:47;;;;;;;;;;;;;;;;;;;;;
2022/07/26 13:18:22;;;;;;;9.90;3.00;;;;;;;25.71;43.56;98629.77;109709;1272;22369;-94
2022/07/26 13:21:27;;;;;;;7.90;2.50;;;;;;;25.62;43.40;98632.63;109661;1265;22942;31
2022/07/26 13:24:39;;;;;;;10.80;2.70;;;;;;;25.42;43.47;98633.42;109424;1281;22455;-89
2022/07/26 13:27:58;;;;;;;;;;;;;;;;;;;;;
2022/07/26 13:30:53;;;;;;;10.90;3.20;;;;;;;25.63;43.52;98631.99;109616;1278;22450;-90
2022/07/26 13:44:05;;;;;;;;;;;;;;;;;;;;;
2022/07/26 13:47:35;;;;;;;;;;;;;;;;;;;;;
2022/07/26 13:50:28;;;;;;;;;;;;;;;;;;;;;
2022/07/26 13:56:39;;;;;;;;;;;;;;;;;;;;;
2022/07/26 14:09:33;;;;;;;;;;;;;;;;;;;;;
2022/07/26 14:34:33;;;;;;;;;;;;;;;;;;;;;
2022/07/26 14:37:43;;;;;;;9.10;2.10;;;;;;;26.48;41.61;98612.97;109095;1272;22483;31
2022/07/26 14:44:05;;;;;;;;;;;;;;;;;;;;;
2022/07/26 14:47:04;;;;;;;6.50;2.00;;;;;;;25.69;42.12;98621.77;109224;1271;23356;-90